Time;durP1;ratioP1;P1;durP2;ratioP2;P2;SDS_P1;SDS_P2;PMS_P1;PMS_P2;Temp;Humidity;BMP_temperature;BMP_pressure;BME280_temperature;BME280_humidity;BME280_pressure;Samples;Min_cycle;Max_cycle;Signal;HPM_P1;HPM_P2
2022/07/19 00:01:18;;;;;;;5.65;2.67;;;;;;;;;;4948836;28;20047;-72
2022/07/19 00:04:03;;;;;;;5.90;2.47;;;;;;;;;;4953170;28;20035;-70
2022/07/19 00:06:49;;;;;;;6.40;3.17;;;;;;;;;;4967052;28;20038;-70
2022/07/19 00:09:34;;;;;;;4.53;2.92;;;;;;;;;;4948410;28;20039;-70
2022/07/19 00:12:20;;;;;;;4.30;2.40;;;;;;;;;;4953129;28;20034;-70
2022/07/19 00:15:07;;;;;;;4.85;2.67;;;;;;;;;;4959484;28;20063;-69
2022/07/19 00:17:52;;;;;;;4.63;2.83;;;;;;;;;;4941335;28;20036;-69
2022/07/19 00:20:38;;;;;;;4.97;2.55;;;;;;;;;;4909348;29;20051;-77
2022/07/19 00:23:24;;;;;;;8.68;3.00;;;;;;;;;;4936586;28;20038;-77
2022/07/19 00:26:09;;;;;;;7.38;3.08;;;;;;;;;;4961294;28;20031;-76
2022/07/19 00:28:56;;;;;;;5.32;2.53;;;;;;;;;;4929013;28;20032;-75
2022/07/19 00:31:41;;;;;;;5.22;3.17;;;;;;;;;;4976889;28;20073;-76
2022/07/19 00:34:27;;;;;;;5.35;2.60;;;;;;;;;;4966993;28;20031;-75
2022/07/19 00:37:12;;;;;;;5.80;2.60;;;;;;;;;;4939989;28;20042;-76
2022/07/19 00:39:58;;;;;;;4.75;2.53;;;;;;;;;;4926470;28;20035;-71
2022/07/19 00:42:43;;;;;;;4.63;2.80;;;;;;;;;;4891812;28;20050;-72
2022/07/19 00:45:29;;;;;;;5.20;2.60;;;;;;;;;;4882361;29;20075;-72
2022/07/19 00:48:15;;;;;;;5.38;3.03;;;;;;;;;;4971898;28;20058;-71
2022/07/19 00:51:00;;;;;;;4.30;2.95;;;;;;;;;;4993707;28;20078;-70
2022/07/19 00:53:47;;;;;;;4.78;2.63;;;;;;;;;;5002601;28;20037;-76
2022/07/19 00:56:33;;;;;;;7.40;2.97;;;;;;;;;;5000921;28;20076;-76
2022/07/19 00:59:19;;;;;;;6.72;2.67;;;;;;;;;;4935554;28;20049;-70
2022/07/19 01:02:04;;;;;;;6.45;3.03;;;;;;;;;;4955122;28;20042;-70
2022/07/19 01:04:50;;;;;;;6.82;2.80;;;;;;;;;;4939722;28;20051;-71
2022/07/19 01:07:37;;;;;;;4.88;3.72;;;;;;;;;;4937073;28;20034;-70
2022/07/19 01:10:22;;;;;;;4.05;2.72;;;;;;;;;;4937939;28;20443;-70
2022/07/19 01:13:08;;;;;;;5.28;2.92;;;;;;;;;;4954257;28;20046;-72
2022/07/19 01:15:54;;;;;;;5.78;3.08;;;;;;;;;;4933495;28;20042;-77
2022/07/19 01:18:40;;;;;;;5.32;2.60;;;;;;;;;;4913347;29;20033;-76
2022/07/19 01:21:26;;;;;;;11.65;3.25;;;;;;;;;;4931689;28;20035;-76
2022/07/19 01:24:11;;;;;;;5.57;2.83;;;;;;;;;;4937031;28;20067;-75
2022/07/19 01:26:57;;;;;;;4.55;2.95;;;;;;;;;;4958663;28;20027;-76
2022/07/19 01:29:42;;;;;;;7.10;3.08;;;;;;;;;;4969111;28;20038;-76
2022/07/19 01:32:42;;;;;;;9.63;3.38;;;;;;;;;;4969608;28;20515;-70
2022/07/19 01:35:28;;;;;;;5.35;2.80;;;;;;;;;;4989321;28;20100;-76
2022/07/19 01:38:14;;;;;;;5.90;2.75;;;;;;;;;;4965379;28;20048;-75
2022/07/19 01:41:00;;;;;;;3.42;2.60;;;;;;;;;;4929371;28;20046;-76
2022/07/19 01:43:45;;;;;;;6.32;2.58;;;;;;;;;;4953668;28;20080;-75
2022/07/19 01:46:31;;;;;;;5.60;3.17;;;;;;;;;;4938444;28;20513;-75
2022/07/19 01:49:16;;;;;;;10.38;3.35;;;;;;;;;;4924538;28;20145;-69
2022/07/19 01:52:02;;;;;;;6.80;3.05;;;;;;;;;;4953500;28;20044;-75
2022/07/19 01:54:47;;;;;;;5.30;2.67;;;;;;;;;;4916116;28;20126;-75
2022/07/19 01:57:33;;;;;;;6.72;2.90;;;;;;;;;;4952271;28;20516;-74
2022/07/19 02:00:19;;;;;;;5.88;3.08;;;;;;;;;;4960031;28;20482;-74
2022/07/19 02:03:04;;;;;;;5.43;3.42;;;;;;;;;;4971700;28;20038;-75
2022/07/19 02:05:50;;;;;;;4.35;2.58;;;;;;;;;;4985991;28;20026;-74
2022/07/19 02:08:35;;;;;;;8.38;3.40;;;;;;;;;;4980938;28;20035;-75
2022/07/19 02:11:36;;;;;;;5.22;3.30;;;;;;;;;;5001451;28;20025;-70
2022/07/19 02:14:22;;;;;;;4.35;2.90;;;;;;;;;;4994946;28;20421;-69
2022/07/19 02:17:07;;;;;;;8.43;3.30;;;;;;;;;;4994393;28;20080;-68
2022/07/19 02:19:53;;;;;;;7.65;3.53;;;;;;;;;;4999087;28;20108;-69
2022/07/19 02:22:38;;;;;;;6.60;3.10;;;;;;;;;;4963021;28;20035;-69
2022/07/19 02:25:24;;;;;;;4.93;2.85;;;;;;;;;;4961621;28;20039;-69
2022/07/19 02:28:10;;;;;;;8.18;3.00;;;;;;;;;;4979251;28;20129;-72
2022/07/19 02:30:55;;;;;;;4.30;2.90;;;;;;;;;;4927832;28;20031;-68
2022/07/19 02:33:41;;;;;;;5.50;3.33;;;;;;;;;;4927329;28;20496;-69
2022/07/19 02:36:26;;;;;;;6.28;3.22;;;;;;;;;;5016720;28;20385;-69
2022/07/19 02:39:13;;;;;;;7.22;3.17;;;;;;;;;;4994527;28;20030;-69
2022/07/19 02:42:07;;;;;;;4.40;2.70;;;;;;;;;;5014772;28;20026;-69
2022/07/19 02:44:53;;;;;;;7.78;3.33;;;;;;;;;;5020553;28;20120;-69
2022/07/19 02:47:38;;;;;;;6.35;3.17;;;;;;;;;;5005659;28;20061;-68
2022/07/19 02:50:24;;;;;;;6.20;3.35;;;;;;;;;;4998898;28;20105;-70
2022/07/19 02:53:13;;;;;;;5.00;2.78;;;;;;;;;;4970945;28;20032;-68
2022/07/19 02:55:58;;;;;;;4.20;3.20;;;;;;;;;;4951576;28;20039;-69
2022/07/19 02:58:44;;;;;;;5.10;3.35;;;;;;;;;;4950892;28;20051;-69
2022/07/19 03:01:30;;;;;;;5.15;3.13;;;;;;;;;;4947776;28;20019;-69
2022/07/19 03:04:15;;;;;;;3.95;3.33;;;;;;;;;;4950732;28;20039;-69
2022/07/19 03:07:01;;;;;;;4.70;3.05;;;;;;;;;;4954341;28;20034;-68
2022/07/19 03:09:47;;;;;;;5.70;3.20;;;;;;;;;;4980641;28;20076;-68
2022/07/19 03:12:32;;;;;;;4.95;3.08;;;;;;;;;;4944796;28;20057;-68
2022/07/19 03:15:18;;;;;;;5.68;3.05;;;;;;;;;;4966263;28;20428;-69
2022/07/19 03:18:04;;;;;;;5.47;3.28;;;;;;;;;;4962424;28;20035;-69
2022/07/19 03:20:49;;;;;;;6.55;3.50;;;;;;;;;;4937155;28;20090;-72
2022/07/19 03:23:37;;;;;;;8.02;4.50;;;;;;;;;;4961072;28;20035;-69
2022/07/19 03:26:22;;;;;;;7.50;3.33;;;;;;;;;;4946768;28;20390;-70
2022/07/19 03:29:08;;;;;;;6.68;3.75;;;;;;;;;;4970734;28;20034;-70
2022/07/19 03:31:57;;;;;;;9.45;3.28;;;;;;;;;;4993205;28;20124;-71
2022/07/19 03:34:43;;;;;;;6.28;3.42;;;;;;;;;;4966220;28;20034;-70
2022/07/19 03:37:29;;;;;;;7.80;3.45;;;;;;;;;;4955358;28;20031;-70
2022/07/19 03:40:14;;;;;;;6.53;3.10;;;;;;;;;;4942984;28;20456;-70
2022/07/19 03:43:00;;;;;;;5.53;3.50;;;;;;;;;;4916022;28;20028;-70
2022/07/19 03:45:45;;;;;;;7.03;3.40;;;;;;;;;;4897208;28;20475;-69
2022/07/19 03:48:31;;;;;;;4.18;2.88;;;;;;;;;;4924246;28;20047;-68
2022/07/19 03:51:17;;;;;;;7.20;3.47;;;;;;;;;;4926938;28;20034;-68
2022/07/19 03:54:02;;;;;;;8.35;3.63;;;;;;;;;;4975360;28;20038;-68
2022/07/19 03:56:48;;;;;;;6.88;3.55;;;;;;;;;;4966214;28;20022;-68
2022/07/19 03:59:33;;;;;;;7.75;4.03;;;;;;;;;;4966114;28;20030;-69
2022/07/19 04:02:19;;;;;;;6.10;3.60;;;;;;;;;;4964962;28;20137;-76
2022/07/19 04:05:05;;;;;;;7.60;3.72;;;;;;;;;;4930099;28;20451;-75
2022/07/19 04:07:50;;;;;;;9.20;3.40;;;;;;;;;;4918464;28;20071;-76
2022/07/19 04:10:36;;;;;;;6.80;3.47;;;;;;;;;;4936861;28;20403;-74
2022/07/19 04:13:22;;;;;;;8.48;4.32;;;;;;;;;;4951491;28;20549;-74
2022/07/19 04:16:07;;;;;;;6.90;3.28;;;;;;;;;;4965671;28;20030;-69
2022/07/19 04:18:53;;;;;;;5.80;3.60;;;;;;;;;;4961550;28;20035;-70
2022/07/19 04:21:38;;;;;;;3.67;3.20;;;;;;;;;;4898660;28;20036;-70
2022/07/19 04:24:24;;;;;;;6.28;3.10;;;;;;;;;;4976619;28;20037;-69
2022/07/19 04:27:10;;;;;;;5.20;3.13;;;;;;;;;;4974209;28;20053;-70
2022/07/19 04:29:56;;;;;;;5.43;2.92;;;;;;;;;;4972098;28;20079;-71
2022/07/19 04:32:41;;;;;;;5.22;3.20;;;;;;;;;;4933135;29;20063;-72
2022/07/19 04:35:27;;;;;;;8.00;3.53;;;;;;;;;;4942993;28;20035;-69
2022/07/19 04:38:13;;;;;;;4.97;3.25;;;;;;;;;;4903701;29;20040;-70
2022/07/19 04:40:58;;;;;;;5.95;3.20;;;;;;;;;;4858022;29;20062;-70
2022/07/19 04:43:44;;;;;;;5.65;3.58;;;;;;;;;;4944616;28;20035;-69
2022/07/19 04:46:29;;;;;;;7.45;2.85;;;;;;;;;;4971516;28;20038;-70
2022/07/19 04:49:15;;;;;;;5.35;3.20;;;;;;;;;;4975984;28;20065;-71
2022/07/19 04:52:01;;;;;;;5.75;3.42;;;;;;;;;;4972892;28;20100;-69
2022/07/19 04:54:46;;;;;;;6.30;3.15;;;;;;;;;;4964065;28;20031;-69
2022/07/19 04:57:32;;;;;;;7.22;3.22;;;;;;;;;;4974683;23;20064;-71
2022/07/19 05:00:17;;;;;;;8.18;3.28;;;;;;;;;;4984556;28;20096;-71
2022/07/19 05:03:05;;;;;;;7.90;3.70;;;;;;;;;;4958384;28;20035;-72
2022/07/19 05:05:50;;;;;;;4.68;3.13;;;;;;;;;;4960109;28;20417;-71
2022/07/19 05:08:36;;;;;;;7.63;3.13;;;;;;;;;;4921539;28;20073;-71
2022/07/19 05:11:21;;;;;;;8.00;4.00;;;;;;;;;;4875339;29;20040;-69
2022/07/19 05:14:07;;;;;;;7.25;3.60;;;;;;;;;;4870313;29;20057;-74
2022/07/19 05:16:52;;;;;;;9.05;3.50;;;;;;;;;;4884315;29;20071;-76
2022/07/19 05:19:38;;;;;;;9.65;3.22;;;;;;;;;;4911081;29;20087;-76
2022/07/19 05:22:25;;;;;;;5.40;3.33;;;;;;;;;;4907306;28;20408;-76
2022/07/19 05:25:10;;;;;;;7.43;3.95;;;;;;;;;;4917617;28;20394;-76
2022/07/19 05:27:56;;;;;;;9.15;3.20;;;;;;;;;;4909250;28;20455;-76
2022/07/19 05:30:43;;;;;;;4.47;2.80;;;;;;;;;;4878726;29;20132;-73
2022/07/19 05:33:29;;;;;;;6.95;2.75;;;;;;;;;;4892423;29;20064;-69
2022/07/19 05:36:15;;;;;;;4.30;2.97;;;;;;;;;;4853411;29;20176;-69
2022/07/19 05:39:01;;;;;;;7.85;2.90;;;;;;;;;;4856320;29;20052;-69
2022/07/19 05:41:47;;;;;;;6.18;3.03;;;;;;;;;;4891895;28;20053;-69
2022/07/19 05:44:33;;;;;;;7.25;3.35;;;;;;;;;;4874227;29;20460;-68
2022/07/19 05:47:18;;;;;;;6.13;3.10;;;;;;;;;;4913292;28;20032;-69
2022/07/19 05:50:04;;;;;;;4.90;3.35;;;;;;;;;;4940206;28;20035;-71
2022/07/19 05:52:50;;;;;;;5.72;2.80;;;;;;;;;;4927196;28;20019;-72
2022/07/19 05:55:36;;;;;;;7.30;3.05;;;;;;;;;;4957547;28;20105;-70
2022/07/19 05:58:24;;;;;;;8.80;3.13;;;;;;;;;;4961474;28;20062;-71
2022/07/19 06:01:19;;;;;;;7.85;3.25;;;;;;;;;;4965312;28;20394;-71
2022/07/19 06:04:04;;;;;;;5.05;2.90;;;;;;;;;;4956200;28;20041;-70
2022/07/19 06:06:50;;;;;;;6.30;3.33;;;;;;;;;;5007334;28;20038;-68
2022/07/19 06:09:36;;;;;;;5.95;3.05;;;;;;;;;;4994506;28;20042;-76
2022/07/19 06:12:22;;;;;;;6.10;3.28;;;;;;;;;;5003925;28;20042;-69
2022/07/19 06:15:08;;;;;;;8.65;3.30;;;;;;;;;;5000028;28;20033;-70
2022/07/19 06:17:54;;;;;;;5.00;2.83;;;;;;;;;;5017962;28;20075;-69
2022/07/19 06:20:39;;;;;;;5.28;2.83;;;;;;;;;;5015599;28;20049;-69
2022/07/19 06:23:25;;;;;;;9.93;3.47;;;;;;;;;;5019002;28;20538;-69
2022/07/19 06:26:11;;;;;;;5.57;3.05;;;;;;;;;;5027845;28;20025;-75
2022/07/19 06:28:57;;;;;;;8.43;3.45;;;;;;;;;;5027597;28;20029;-72
2022/07/19 06:31:42;;;;;;;7.35;3.08;;;;;;;;;;5026867;28;20040;-72
2022/07/19 06:34:28;;;;;;;6.63;3.17;;;;;;;;;;5017635;28;20045;-72
2022/07/19 06:37:13;;;;;;;5.70;2.53;;;;;;;;;;5010228;28;20038;-70
2022/07/19 06:39:59;;;;;;;6.38;2.70;;;;;;;;;;5021033;28;20044;-70
2022/07/19 06:42:45;;;;;;;8.88;3.17;;;;;;;;;;5016397;28;20065;-71
2022/07/19 06:45:30;;;;;;;6.95;2.80;;;;;;;;;;4990029;28;20092;-72
2022/07/19 06:48:16;;;;;;;7.03;2.92;;;;;;;;;;4994898;28;20025;-74
2022/07/19 06:51:02;;;;;;;10.60;2.70;;;;;;;;;;5029266;28;20049;-73
2022/07/19 06:53:48;;;;;;;6.50;2.70;;;;;;;;;;5047038;28;20534;-73
2022/07/19 06:56:33;;;;;;;6.60;2.38;;;;;;;;;;5038461;28;20086;-73
2022/07/19 06:59:19;;;;;;;3.63;2.60;;;;;;;;;;5038508;28;20036;-73
2022/07/19 07:02:05;;;;;;;5.40;2.33;;;;;;;;;;5019355;28;20037;-70
2022/07/19 07:04:50;;;;;;;5.72;2.22;;;;;;;;;;5032290;28;20037;-69
2022/07/19 07:07:36;;;;;;;5.88;2.53;;;;;;;;;;5019950;28;20085;-76
2022/07/19 07:10:22;;;;;;;6.82;2.20;;;;;;;;;;5029928;28;23750;-77
2022/07/19 07:13:07;;;;;;;4.68;1.88;;;;;;;;;;5039720;28;20043;-76
2022/07/19 07:15:53;;;;;;;6.22;2.50;;;;;;;;;;5018933;28;20147;-75
2022/07/19 07:18:39;;;;;;;7.43;2.33;;;;;;;;;;5017739;28;20388;-76
2022/07/19 07:21:24;;;;;;;4.65;1.90;;;;;;;;;;5032170;28;20171;-74
2022/07/19 07:24:10;;;;;;;7.25;2.00;;;;;;;;;;5005069;28;20044;-72
2022/07/19 07:26:55;;;;;;;5.28;1.95;;;;;;;;;;5037369;28;20043;-72
2022/07/19 07:29:41;;;;;;;5.78;2.38;;;;;;;;;;5038805;28;20160;-73
2022/07/19 07:32:27;;;;;;;4.43;1.73;;;;;;;;;;5026307;28;20062;-74
2022/07/19 07:35:12;;;;;;;10.15;2.53;;;;;;;;;;5022264;28;20493;-73
2022/07/19 07:37:58;;;;;;;7.85;2.30;;;;;;;;;;5008253;28;20029;-73
2022/07/19 07:40:43;;;;;;;3.45;1.73;;;;;;;;;;5010729;28;20021;-71
2022/07/19 07:43:29;;;;;;;6.93;2.08;;;;;;;;;;5036434;28;20037;-70
2022/07/19 07:46:15;;;;;;;3.67;1.85;;;;;;;;;;5025249;28;20096;-69
2022/07/19 07:49:00;;;;;;;8.35;3.17;;;;;;;;;;5025072;28;20041;-69
2022/07/19 07:51:46;;;;;;;6.85;2.22;;;;;;;;;;5023908;28;20091;-69
2022/07/19 07:54:32;;;;;;;3.75;1.70;;;;;;;;;;5029387;28;20025;-69
2022/07/19 07:57:18;;;;;;;2.78;1.98;;;;;;;;;;5024129;28;20034;-77
2022/07/19 08:00:04;;;;;;;5.63;2.70;;;;;;;;;;5033788;28;20036;-70
2022/07/19 08:02:51;;;;;;;7.07;2.10;;;;;;;;;;5018208;28;20041;-68
2022/07/19 08:05:39;;;;;;;4.13;2.17;;;;;;;;;;5005968;28;20034;-69
2022/07/19 08:08:26;;;;;;;7.25;1.90;;;;;;;;;;5030440;28;20051;-69
2022/07/19 08:11:14;;;;;;;2.97;1.40;;;;;;;;;;4989365;28;20504;-69
2022/07/19 08:14:03;;;;;;;3.83;1.38;;;;;;;;;;4954689;28;20054;-70
2022/07/19 08:16:49;;;;;;;4.88;1.65;;;;;;;;;;4991940;28;20040;-72
2022/07/19 08:19:34;;;;;;;4.50;1.85;;;;;;;;;;5027450;28;20029;-73
2022/07/19 08:22:20;;;;;;;2.28;1.50;;;;;;;;;;5039602;28;20405;-72
2022/07/19 08:25:06;;;;;;;4.72;2.08;;;;;;;;;;5049868;28;20127;-74
2022/07/19 08:27:52;;;;;;;4.00;2.25;;;;;;;;;;5022840;28;20120;-72
2022/07/19 08:30:37;;;;;;;3.97;1.70;;;;;;;;;;5028262;28;20029;-71
2022/07/19 08:33:23;;;;;;;2.53;1.50;;;;;;;;;;5053600;28;20041;-71
2022/07/19 08:36:12;;;;;;;3.13;2.03;;;;;;;;;;5010886;28;21510;-68
2022/07/19 08:38:57;;;;;;;6.20;1.92;;;;;;;;;;5025798;28;21254;-77
2022/07/19 08:41:44;;;;;;;5.18;2.00;;;;;;;;;;5006553;28;20026;-77
2022/07/19 08:44:32;;;;;;;1.80;1.60;;;;;;;;;;5021293;28;20041;-75
2022/07/19 08:47:18;;;;;;;3.88;1.65;;;;;;;;;;5035030;28;20463;-77
2022/07/19 08:50:05;;;;;;;3.08;1.92;;;;;;;;;;5007824;28;20112;-73
2022/07/19 08:52:51;;;;;;;4.78;2.10;;;;;;;;;;5024028;28;20065;-71
2022/07/19 08:55:37;;;;;;;3.97;1.70;;;;;;;;;;5014504;28;20022;-71
2022/07/19 08:58:22;;;;;;;5.18;2.00;;;;;;;;;;5031222;28;20033;-71
2022/07/19 09:01:08;;;;;;;2.80;1.80;;;;;;;;;;5048297;28;20081;-70
2022/07/19 09:04:07;;;;;;;2.90;1.83;;;;;;;;;;5029644;28;20504;-69
2022/07/19 09:06:55;;;;;;;2.65;1.70;;;;;;;;;;5020602;28;20116;-71
2022/07/19 09:09:40;;;;;;;3.30;1.63;;;;;;;;;;5030744;28;20025;-71
2022/07/19 09:12:26;;;;;;;3.75;1.85;;;;;;;;;;5040732;28;20040;-71
2022/07/19 09:15:11;;;;;;;3.15;1.75;;;;;;;;;;5021028;28;20025;-74
2022/07/19 09:18:07;;;;;;;3.80;1.80;;;;;;;;;;5006206;28;20645;-74
2022/07/19 09:20:54;;;;;;;3.40;1.60;;;;;;;;;;4982188;28;20026;-73
2022/07/19 09:23:40;;;;;;;3.85;1.85;;;;;;;;;;5017861;28;20595;-74
2022/07/19 09:26:26;;;;;;;2.78;2.10;;;;;;;;;;5040017;28;20534;-73
2022/07/19 09:29:18;;;;;;;6.85;2.00;;;;;;;;;;5037351;28;20400;-74
2022/07/19 09:32:05;;;;;;;6.03;2.53;;;;;;;;;;5023151;28;20119;-75
2022/07/19 09:34:51;;;;;;;4.82;1.75;;;;;;;;;;4996049;28;20044;-73
2022/07/19 09:37:38;;;;;;;5.28;1.50;;;;;;;;;;5030215;28;20108;-73
2022/07/19 09:40:30;;;;;;;4.93;2.28;;;;;;;;;;5040309;28;20101;-73
2022/07/19 09:43:17;;;;;;;3.85;1.80;;;;;;;;;;5032147;28;20071;-74
2022/07/19 09:46:02;;;;;;;4.65;2.03;;;;;;;;;;5038357;28;20037;-74
2022/07/19 09:48:48;;;;;;;3.17;1.77;;;;;;;;;;5019209;28;20067;-68
2022/07/19 09:51:35;;;;;;;4.40;2.10;;;;;;;;;;5010762;28;20082;-74
2022/07/19 09:54:27;;;;;;;5.35;2.33;;;;;;;;;;5040594;28;20091;-74
2022/07/19 09:57:13;;;;;;;4.13;2.00;;;;;;;;;;5039829;28;20108;-73
2022/07/19 10:00:00;;;;;;;6.38;2.28;;;;;;;;;;5028332;28;20063;-74
2022/07/19 10:02:53;;;;;;;4.57;2.33;;;;;;;;;;5041965;28;20108;-71
2022/07/19 10:05:39;;;;;;;7.97;3.10;;;;;;;;;;5029625;28;20376;-71
2022/07/19 10:08:24;;;;;;;3.38;2.30;;;;;;;;;;5014142;28;20040;-77
2022/07/19 10:11:12;;;;;;;5.32;2.30;;;;;;;;;;5015240;28;20219;-70
2022/07/19 10:14:00;;;;;;;4.65;2.58;;;;;;;;;;4969881;28;20515;-71
2022/07/19 10:17:12;;;;;;;4.82;2.40;;;;;;;;;;5017685;28;20045;-71
2022/07/19 10:19:58;;;;;;;3.90;2.10;;;;;;;;;;4925304;28;20104;-70
2022/07/19 10:22:43;;;;;;;5.95;2.42;;;;;;;;;;4930594;28;20026;-68
2022/07/19 10:25:37;;;;;;;5.88;2.20;;;;;;;;;;4927031;29;20040;-74
2022/07/19 10:28:31;;;;;;;7.78;2.55;;;;;;;;;;4942269;28;20046;-69
2022/07/19 10:31:35;;;;;;;4.88;2.40;;;;;;;;;;4914357;29;20134;-69
2022/07/19 10:34:22;;;;;;;6.43;2.97;;;;;;;;;;4906849;29;20035;-71
2022/07/19 10:37:08;;;;;;;4.90;2.40;;;;;;;;;;4929766;28;20047;-72
2022/07/19 10:39:57;;;;;;;5.47;2.28;;;;;;;;;;4929107;28;20031;-71
2022/07/19 10:43:01;;;;;;;3.80;2.38;;;;;;;;;;4902617;29;20084;-74
2022/07/19 10:45:56;;;;;;;9.85;2.85;;;;;;;;;;4930805;28;20066;-75
2022/07/19 10:48:48;;;;;;;5.88;3.00;;;;;;;;;;4908068;28;20046;-71
2022/07/19 10:51:34;;;;;;;7.65;2.63;;;;;;;;;;4908970;29;20409;-71
2022/07/19 10:54:20;;;;;;;4.82;2.40;;;;;;;;;;4931912;28;20062;-71
2022/07/19 10:57:05;;;;;;;9.20;2.92;;;;;;;;;;4967415;28;20128;-70
2022/07/19 10:59:51;;;;;;;5.38;2.53;;;;;;;;;;4941705;28;20035;-72
2022/07/19 11:02:36;;;;;;;4.32;2.35;;;;;;;;;;4943401;28;20027;-70
2022/07/19 11:05:29;;;;;;;5.03;2.38;;;;;;;;;;4926448;28;20440;-71
2022/07/19 11:08:15;;;;;;;5.25;2.58;;;;;;;;;;4960666;28;20117;-68
2022/07/19 11:11:11;;;;;;;5.25;3.03;;;;;;;;;;4994861;28;20050;-68
2022/07/19 11:14:00;;;;;;;3.95;2.25;;;;;;;;;;4979570;28;26733;-69
2022/07/19 11:16:45;;;;;;;5.90;2.83;;;;;;;;;;4975255;28;20057;-69
2022/07/19 11:19:31;;;;;;;6.32;2.72;;;;;;;;;;4985822;28;20030;-72
2022/07/19 11:22:16;;;;;;;7.05;3.33;;;;;;;;;;4993343;28;20021;-73
2022/07/19 11:25:03;;;;;;;6.88;2.63;;;;;;;;;;5022359;28;20045;-69
2022/07/19 11:27:49;;;;;;;4.70;2.50;;;;;;;;;;5020761;28;20033;-68
2022/07/19 11:30:35;;;;;;;3.50;2.40;;;;;;;;;;5019434;28;20030;-69
2022/07/19 11:33:21;;;;;;;7.00;2.83;;;;;;;;;;5018223;28;20368;-69
2022/07/19 11:36:07;;;;;;;5.00;2.65;;;;;;;;;;5021098;28;20041;-69
2022/07/19 11:38:54;;;;;;;4.80;2.50;;;;;;;;;;5029177;28;20558;-72
2022/07/19 11:41:43;;;;;;;7.63;2.72;;;;;;;;;;5034425;28;20078;-73
2022/07/19 11:44:29;;;;;;;6.20;2.65;;;;;;;;;;5011103;28;20040;-73
2022/07/19 11:47:15;;;;;;;3.85;2.53;;;;;;;;;;5033915;28;20127;-75
2022/07/19 11:50:05;;;;;;;6.63;2.60;;;;;;;;;;5018853;28;20124;-74
2022/07/19 11:52:55;;;;;;;6.65;2.40;;;;;;;;;;5019736;28;20095;-74
2022/07/19 11:55:48;;;;;;;4.97;2.30;;;;;;;;;;5038889;28;20123;-73
2022/07/19 11:58:34;;;;;;;5.30;2.20;;;;;;;;;;5031470;28;20034;-81
2022/07/19 12:01:23;;;;;;;5.35;2.80;;;;;;;;;;5028758;28;20046;-69
2022/07/19 12:04:10;;;;;;;5.50;2.70;;;;;;;;;;5009569;28;20042;-70
2022/07/19 12:06:59;;;;;;;7.50;2.40;;;;;;;;;;4991673;28;20026;-69
2022/07/19 12:09:44;;;;;;;;;;;;;;;;;;5024939;28;20500;-69
2022/07/19 12:12:39;;;;;;;7.00;2.50;;;;;;;;;;5019931;28;19916;-70
2022/07/19 12:15:25;;;;;;;6.18;2.63;;;;;;;;;;5019822;28;20105;-72
2022/07/19 12:18:12;;;;;;;5.57;2.95;;;;;;;;;;5025308;28;20054;-70
2022/07/19 12:21:16;;;;;;;5.82;2.35;;;;;;;;;;5029360;28;20033;-70
2022/07/19 12:24:21;;;;;;;6.78;2.75;;;;;;;;;;5016875;28;20033;-70
2022/07/19 12:27:08;;;;;;;5.82;2.50;;;;;;;;;;5020425;28;20041;-70
2022/07/19 12:29:54;;;;;;;6.32;3.03;;;;;;;;;;5029207;28;20042;-71
2022/07/19 12:32:46;;;;;;;9.05;3.00;;;;;;;;;;5038762;28;20026;-69
2022/07/19 12:35:40;;;;;;;5.38;2.70;;;;;;;;;;5006505;28;20068;-73
2022/07/19 12:38:32;;;;;;;6.70;3.33;;;;;;;;;;5022643;28;20033;-74
2022/07/19 12:41:17;;;;;;;11.07;2.80;;;;;;;;;;5032807;28;20029;-73
2022/07/19 12:44:03;;;;;;;4.80;2.72;;;;;;;;;;5043002;28;20048;-73
2022/07/19 12:46:48;;;;;;;4.20;2.50;;;;;;;;;;5043030;28;20024;-73
2022/07/19 12:49:41;;;;;;;9.63;3.20;;;;;;;;;;5041201;28;20025;-74
2022/07/19 12:52:27;;;;;;;4.38;2.70;;;;;;;;;;5028372;28;20179;-72
2022/07/19 12:55:13;;;;;;;5.00;3.00;;;;;;;;;;5041697;28;20087;-75
2022/07/19 12:57:59;;;;;;;7.38;2.58;;;;;;;;;;5023563;28;20030;-75
2022/07/19 13:00:45;;;;;;;5.55;2.80;;;;;;;;;;5009672;28;20070;-76
2022/07/19 13:03:30;;;;;;;4.57;2.65;;;;;;;;;;5007936;28;20034;-76
2022/07/19 13:06:16;;;;;;;4.95;2.70;;;;;;;;;;5023391;28;20361;-76
2022/07/19 13:09:01;;;;;;;6.65;2.70;;;;;;;;;;5001734;28;20045;-76
2022/07/19 13:11:47;;;;;;;8.95;2.70;;;;;;;;;;5022909;28;20499;-71
2022/07/19 13:14:33;;;;;;;7.63;3.40;;;;;;;;;;5027904;28;20572;-71
2022/07/19 13:17:19;;;;;;;14.32;3.47;;;;;;;;;;5040236;28;20091;-71
2022/07/19 13:20:07;;;;;;;5.57;2.60;;;;;;;;;;5022550;28;20115;-70
2022/07/19 13:22:53;;;;;;;6.55;3.47;;;;;;;;;;5035766;28;20029;-71
2022/07/19 13:25:39;;;;;;;4.15;2.72;;;;;;;;;;5034020;28;20041;-72
2022/07/19 13:28:25;;;;;;;9.35;3.60;;;;;;;;;;5034300;28;20087;-73
2022/07/19 13:31:10;;;;;;;8.82;2.90;;;;;;;;;;5032049;28;20042;-75
2022/07/19 13:33:56;;;;;;;7.32;2.58;;;;;;;;;;5035712;28;20469;-72
2022/07/19 13:36:42;;;;;;;7.60;2.65;;;;;;;;;;5021539;28;20052;-74
2022/07/19 13:39:28;;;;;;;9.55;2.47;;;;;;;;;;5027540;28;21292;-73
2022/07/19 13:42:13;;;;;;;5.38;2.75;;;;;;;;;;5036201;28;20056;-73
2022/07/19 13:44:59;;;;;;;4.40;2.90;;;;;;;;;;5036265;28;20048;-72
2022/07/19 13:47:45;;;;;;;6.03;2.92;;;;;;;;;;5024129;28;20029;-71
2022/07/19 13:50:30;;;;;;;8.65;2.80;;;;;;;;;;5016132;28;20044;-71
2022/07/19 13:53:16;;;;;;;10.90;2.75;;;;;;;;;;5003107;28;20053;-70
2022/07/19 13:56:02;;;;;;;6.65;2.58;;;;;;;;;;5015901;28;20033;-72
2022/07/19 13:58:48;;;;;;;8.07;2.47;;;;;;;;;;4997051;28;20038;-72
2022/07/19 14:01:33;;;;;;;6.25;2.47;;;;;;;;;;4996175;28;20032;-71
2022/07/19 14:04:19;;;;;;;7.38;2.75;;;;;;;;;;4991739;28;20473;-71
2022/07/19 14:07:04;;;;;;;4.97;2.67;;;;;;;;;;4992500;28;20046;-73
2022/07/19 14:09:50;;;;;;;6.15;2.92;;;;;;;;;;4990447;28;21261;-69
2022/07/19 14:12:36;;;;;;;7.85;3.05;;;;;;;;;;4977452;28;20056;-70
2022/07/19 14:15:21;;;;;;;7.18;2.95;;;;;;;;;;4989841;28;20453;-69
2022/07/19 14:18:07;;;;;;;4.45;2.65;;;;;;;;;;5032834;28;20051;-69
2022/07/19 14:20:53;;;;;;;5.13;2.55;;;;;;;;;;5028976;28;20042;-70
2022/07/19 14:23:40;;;;;;;4.05;2.83;;;;;;;;;;5017978;28;20048;-72
2022/07/19 14:26:26;;;;;;;5.40;2.45;;;;;;;;;;5039414;28;20115;-73
2022/07/19 14:29:12;;;;;;;6.97;3.22;;;;;;;;;;5023651;28;20131;-69
2022/07/19 14:31:57;;;;;;;8.25;2.60;;;;;;;;;;5020560;28;20474;-69
2022/07/19 14:34:43;;;;;;;9.45;2.65;;;;;;;;;;5004276;28;20511;-70
2022/07/19 14:37:28;;;;;;;10.38;3.05;;;;;;;;;;5017138;28;20048;-69
2022/07/19 14:40:15;;;;;;;6.50;2.70;;;;;;;;;;5010972;28;20088;-69
2022/07/19 14:43:02;;;;;;;6.45;3.33;;;;;;;;;;4984029;28;20034;-73
2022/07/19 14:45:48;;;;;;;6.93;2.92;;;;;;;;;;5029256;28;20039;-73
2022/07/19 14:48:34;;;;;;;6.80;3.15;;;;;;;;;;5031787;28;20384;-73
2022/07/19 14:51:19;;;;;;;5.95;2.72;;;;;;;;;;5033907;28;20055;-74
2022/07/19 14:54:05;;;;;;;14.45;3.58;;;;;;;;;;5001457;28;20033;-74
2022/07/19 14:56:51;;;;;;;8.40;2.88;;;;;;;;;;5005161;28;20033;-73
2022/07/19 14:59:37;;;;;;;8.35;2.92;;;;;;;;;;5012068;28;20450;-73
2022/07/19 15:02:22;;;;;;;3.17;2.42;;;;;;;;;;5025299;28;20294;-70
2022/07/19 15:05:08;;;;;;;5.85;2.85;;;;;;;;;;5016337;28;20048;-72
2022/07/19 15:07:54;;;;;;;7.93;3.20;;;;;;;;;;5000811;28;20026;-73
2022/07/19 15:10:39;;;;;;;5.97;2.65;;;;;;;;;;4993276;28;20046;-72
2022/07/19 15:13:25;;;;;;;9.48;2.45;;;;;;;;;;5003904;28;20040;-71
2022/07/19 15:16:11;;;;;;;7.88;2.58;;;;;;;;;;5018931;28;20038;-74
2022/07/19 15:18:56;;;;;;;8.40;2.53;;;;;;;;;;4999778;28;20381;-73
2022/07/19 15:21:44;;;;;;;5.60;2.90;;;;;;;;;;4989037;28;20444;-68
2022/07/19 15:24:46;;;;;;;6.82;3.00;;;;;;;;;;5006272;28;20105;-71
2022/07/19 15:27:32;;;;;;;6.50;3.28;;;;;;;;;;4980539;28;20022;-71
2022/07/19 15:30:18;;;;;;;8.30;2.97;;;;;;;;;;4987472;28;20086;-70
2022/07/19 15:33:04;;;;;;;6.15;2.80;;;;;;;;;;5017060;28;20486;-70
2022/07/19 15:35:49;;;;;;;7.95;2.92;;;;;;;;;;4999326;28;20036;-71
2022/07/19 15:38:35;;;;;;;9.77;3.03;;;;;;;;;;4996039;28;20787;-69
2022/07/19 15:41:21;;;;;;;8.65;3.55;;;;;;;;;;4973537;28;20489;-73
2022/07/19 15:44:06;;;;;;;7.60;2.70;;;;;;;;;;4946355;28;20070;-72
2022/07/19 15:46:52;;;;;;;6.65;2.85;;;;;;;;;;4965095;28;20385;-73
2022/07/19 15:49:38;;;;;;;4.80;2.65;;;;;;;;;;4985525;28;20073;-72
2022/07/19 15:52:23;;;;;;;4.63;2.92;;;;;;;;;;4993624;28;20029;-72
2022/07/19 15:55:09;;;;;;;6.18;2.60;;;;;;;;;;5021759;28;20037;-72
2022/07/19 15:57:55;;;;;;;7.35;3.03;;;;;;;;;;5019471;28;20028;-78
2022/07/19 16:00:40;;;;;;;6.75;3.17;;;;;;;;;;4990168;28;20033;-70
2022/07/19 16:03:26;;;;;;;4.95;2.50;;;;;;;;;;4983400;28;20060;-69
2022/07/19 16:06:12;;;;;;;7.03;2.80;;;;;;;;;;5023626;28;20057;-69
2022/07/19 16:08:58;;;;;;;4.68;2.50;;;;;;;;;;5013236;28;20117;-70
2022/07/19 16:11:43;;;;;;;8.23;2.90;;;;;;;;;;5002720;28;20066;-70
2022/07/19 16:14:29;;;;;;;5.82;2.65;;;;;;;;;;5017987;28;20064;-72
2022/07/19 16:17:14;;;;;;;5.22;2.60;;;;;;;;;;5014295;28;20425;-69
2022/07/19 16:20:00;;;;;;;5.00;2.35;;;;;;;;;;4992976;28;20467;-69
2022/07/19 16:22:46;;;;;;;6.43;2.70;;;;;;;;;;4995209;28;20034;-69
2022/07/19 16:25:32;;;;;;;5.20;2.38;;;;;;;;;;5002087;28;21022;-69
2022/07/19 16:28:17;;;;;;;5.25;2.80;;;;;;;;;;4998286;28;20107;-69
2022/07/19 16:31:03;;;;;;;4.53;2.75;;;;;;;;;;5018469;28;20120;-69
2022/07/19 16:33:48;;;;;;;6.97;2.50;;;;;;;;;;5003569;28;20037;-73
2022/07/19 16:36:34;;;;;;;6.63;2.42;;;;;;;;;;4995541;28;20085;-69
2022/07/19 16:39:20;;;;;;;6.25;2.53;;;;;;;;;;4988083;28;20026;-69